TimeEDT,TemperatureF,Dew PointF,Humidity,Sea Level PressureIn,VisibilityMPH,Wind Direction,Wind SpeedMPH,Gust SpeedMPH,PrecipitationIn,Events,Conditions,WindDirDegrees,DateUTC
12:54 AM,75.0,60.1,60,29.68,10.0,South,18.4,25.3,N/A,,Mostly Cloudy,180,2013-10-07 04:54:00
1:54 AM,73.9,60.1,62,29.66,10.0,SW,15.0,21.9,N/A,,Mostly Cloudy,230,2013-10-07 05:54:00
2:37 AM,68.0,64.4,88,29.68,10.0,SW,10.4,-,N/A,,Overcast,230,2013-10-07 06:37:00
2:54 AM,68.0,64.0,87,29.66,10.0,SW,12.7,23.0,N/A,,Overcast,220,2013-10-07 06:54:00
3:54 AM,64.0,60.1,87,29.65,10.0,WSW,15.0,-,N/A,,Overcast,240,2013-10-07 07:54:00
4:13 AM,62.6,59.0,88,29.67,10.0,WSW,16.1,21.9,N/A,,Overcast,240,2013-10-07 08:13:00
4:54 AM,63.0,55.9,78,29.68,10.0,WSW,13.8,-,N/A,,Overcast,250,2013-10-07 08:54:00
5:01 AM,62.6,55.4,77,29.68,10.0,WSW,8.1,-,N/A,,Overcast,250,2013-10-07 09:01:00
5:54 AM,61.0,55.9,83,29.67,10.0,West,10.4,-,0.00,Rain,Light Rain,260,2013-10-07 09:54:00
6:29 AM,59.0,57.2,94,29.69,9.0,West,6.9,-,0.02,Rain,Light Rain,270,2013-10-07 10:29:00
6:50 AM,59.0,57.2,94,29.69,4.0,WSW,8.1,-,0.06,Rain,Heavy Rain,240,2013-10-07 10:50:00
6:54 AM,59.0,57.9,96,29.68,5.0,WSW,9.2,-,0.07,Rain,Light Rain,250,2013-10-07 10:54:00
7:54 AM,57.9,55.9,93,29.68,3.0,WSW,10.4,-,0.14,Rain,Rain,240,2013-10-07 11:54:00
8:33 AM,57.2,55.4,94,29.69,4.0,SW,11.5,-,0.06,Rain,Rain,230,2013-10-07 12:33:00
8:48 AM,57.2,55.4,94,29.67,4.0,SW,9.2,18.4,0.10,Rain,Rain,230,2013-10-07 12:48:00
8:54 AM,57.9,55.9,93,29.68,3.0,SW,11.5,-,0.11,Rain,Rain,220,2013-10-07 12:54:00
9:54 AM,57.9,55.9,93,29.70,3.0,WSW,16.1,23.0,0.17,Rain,Heavy Rain,240,2013-10-07 13:54:00
10:52 AM,57.2,53.6,88,29.72,7.0,WSW,17.3,31.1,0.13,Rain,Rain,240,2013-10-07 14:52:00
10:54 AM,57.0,53.1,87,29.72,7.0,WSW,17.3,27.6,0.13,Rain,Rain,240,2013-10-07 14:54:00
11:54 AM,57.0,50.0,77,29.72,10.0,SW,25.3,34.5,0.01,,Mostly Cloudy,220,2013-10-07 15:54:00
12:54 PM,57.0,48.0,72,29.71,10.0,WSW,20.7,33.4,N/A,,Mostly Cloudy,240,2013-10-07 16:54:00
1:25 PM,55.4,44.6,67,29.72,10.0,West,23.0,31.1,0.00,Rain,Light Rain,260,2013-10-07 17:25:00
1:54 PM,54.0,46.0,75,29.72,9.0,WSW,17.3,31.1,0.00,Rain,Light Rain,250,2013-10-07 17:54:00
2:31 PM,53.6,48.2,82,29.73,7.0,WSW,21.9,34.5,0.02,Rain,Rain,250,2013-10-07 18:31:00
2:38 PM,53.6,48.2,82,29.72,2.0,WSW,23.0,36.8,0.04,Rain,Rain,240,2013-10-07 18:38:00
2:50 PM,53.6,48.2,82,29.74,4.0,West,23.0,32.2,0.08,Rain,Rain,260,2013-10-07 18:50:00
2:54 PM,53.1,48.9,86,29.74,3.0,WSW,25.3,43.7,0.09,Rain,Heavy Rain,250,2013-10-07 18:54:00
3:54 PM,52.0,46.9,83,29.79,5.0,WSW,16.1,25.3,0.11,Rain,Light Rain,250,2013-10-07 19:54:00
4:54 PM,57.0,45.0,64,29.79,10.0,WSW,27.6,36.8,0.00,,Mostly Cloudy,250,2013-10-07 20:54:00
5:54 PM,57.9,45.0,62,29.83,10.0,WSW,25.3,31.1,N/A,,Mostly Cloudy,250,2013-10-07 21:54:00
6:54 PM,57.0,45.0,64,29.87,10.0,West,16.1,21.9,N/A,,Overcast,260,2013-10-07 22:54:00
7:54 PM,57.9,46.0,65,29.91,10.0,West,17.3,23.0,N/A,,Overcast,270,2013-10-07 23:54:00
8:54 PM,54.0,46.0,75,29.96,10.0,WNW,15.0,23.0,N/A,,Overcast,290,2013-10-08 00:54:00
9:54 PM,52.0,46.0,80,30.01,10.0,West,8.1,-,N/A,,Scattered Clouds,260,2013-10-08 01:54:00
10:54 PM,50.0,46.0,86,30.04,10.0,SSW,6.9,-,N/A,,Partly Cloudy,210,2013-10-08 02:54:00
11:54 PM,50.0,46.9,89,30.08,10.0,SW,5.8,-,N/A,,Scattered Clouds,220,2013-10-08 03:54:00